createdAt,value
2022-10-04T00:02:34.583Z,95258.34
2022-10-04T00:05:41.472Z,95253.81
2022-10-04T00:08:49.281Z,95253.31
2022-10-04T00:11:57.022Z,95263.97
2022-10-04T00:15:03.283Z,95267.72
2022-10-04T00:18:19.807Z,95261.59
2022-10-04T00:21:24.210Z,95255.50
2022-10-04T00:24:29.394Z,95255.50
2022-10-04T00:27:32.384Z,95263.47
2022-10-04T00:30:39.410Z,95247.22
2022-10-04T00:33:44.593Z,95248.28
2022-10-04T00:36:55.241Z,95250.16
2022-10-04T00:40:02.376Z,95233.69
2022-10-04T00:43:08.501Z,95233.13
2022-10-04T00:46:15.240Z,95235.28
2022-10-04T00:49:21.905Z,95227.00
2022-10-04T00:52:30.434Z,95219.81
2022-10-04T00:55:39.546Z,95219.31
2022-10-04T00:59:04.890Z,95220.88
2022-10-04T01:02:16.423Z,95217.13
2022-10-04T01:05:24.530Z,95219.31
2022-10-04T01:08:33.145Z,95221.47
2022-10-04T01:11:41.468Z,95219.31
2022-10-04T01:14:52.986Z,95219.59
2022-10-04T01:18:14.404Z,95220.97
2022-10-04T01:21:29.590Z,95223.31
2022-10-04T01:24:37.850Z,95218.00
2022-10-04T01:27:44.697Z,95219.88
2022-10-04T01:30:53.074Z,95213.78
2022-10-04T01:33:57.090Z,95216.53
2022-10-04T01:37:01.423Z,95217.81
2022-10-04T01:40:07.378Z,95218.59
2022-10-04T01:43:14.383Z,95220.97
2022-10-04T01:46:22.566Z,95220.47
2022-10-04T01:49:31.332Z,95213.47
2022-10-04T01:52:41.185Z,95213.78
2022-10-04T01:55:50.134Z,95210.03
2022-10-04T01:58:58.683Z,95215.66
2022-10-04T02:02:07.119Z,95216.13
2022-10-04T02:05:13.355Z,95220.19
2022-10-04T02:08:19.250Z,95223.13
2022-10-04T02:11:24.265Z,95227.69
2022-10-04T02:14:29.971Z,95227.38
2022-10-04T02:17:39.209Z,95228.75
2022-10-04T02:20:43.816Z,95231.91
2022-10-04T02:23:48.450Z,95230.81
2022-10-04T02:26:54.594Z,95230.16
2022-10-04T02:30:02.402Z,95235.16
2022-10-04T02:33:04.889Z,95231.41
2022-10-04T02:36:10.000Z,95234.38
2022-10-04T02:39:17.582Z,95237.34
2022-10-04T02:42:29.393Z,95245.81
2022-10-04T02:45:41.283Z,95258.34
2022-10-04T02:48:48.854Z,95256.47
2022-10-04T02:51:55.519Z,95265.53
2022-10-04T02:55:03.778Z,95270.06
2022-10-04T02:58:15.544Z,95266.91
2022-10-04T03:01:27.606Z,95272.22
2022-10-04T03:04:33.761Z,95264.75
2022-10-04T03:07:38.070Z,95265.34
2022-10-04T03:10:44.279Z,95276.47
2022-10-04T03:13:50.913Z,95279.13
2022-10-04T03:16:57.141Z,95272.81
2022-10-04T03:20:01.228Z,95279.13
2022-10-04T03:23:06.141Z,95289.78
2022-10-04T03:26:21.372Z,95279.25
2022-10-04T03:29:29.605Z,95283.97
2022-10-04T03:32:33.470Z,95281.31
2022-10-04T03:35:40.466Z,95289.00
2022-10-04T03:38:43.527Z,95290.38
2022-10-04T03:41:46.631Z,95292.75
2022-10-04T03:44:54.610Z,95293.81
2022-10-04T03:48:05.423Z,95295.69
2022-10-04T03:51:14.996Z,95299.44
2022-10-04T03:54:24.186Z,95293.03
2022-10-04T03:57:27.422Z,95293.34
2022-10-04T04:00:32.754Z,95295.19
2022-10-04T04:03:48.782Z,95294.13
2022-10-04T04:07:02.501Z,95296.78
2022-10-04T04:10:16.815Z,95299.22
2022-10-04T04:13:25.397Z,95301.31
2022-10-04T04:16:30.207Z,95301.59
2022-10-04T04:19:34.831Z,95309.84
2022-10-04T04:22:39.305Z,95310.09
2022-10-04T04:25:46.029Z,95304.53
2022-10-04T04:28:52.529Z,95317.06
2022-10-04T04:32:02.235Z,95322.09
2022-10-04T04:35:08.529Z,95323.94
2022-10-04T04:38:19.174Z,95323.16
2022-10-04T04:41:24.122Z,95328.50
2022-10-04T04:44:27.961Z,95329.28
2022-10-04T04:47:34.983Z,95322.38
2022-10-04T04:50:41.181Z,95329.28
2022-10-04T04:53:44.697Z,95327.69
2022-10-04T04:56:51.124Z,95333.03
2022-10-04T04:59:58.471Z,95335.69
2022-10-04T05:03:05.301Z,95334.88
2022-10-04T05:06:26.437Z,95336.47
2022-10-04T05:09:34.892Z,95335.69
2022-10-04T05:12:37.990Z,95334.59
2022-10-04T05:15:43.403Z,95342.59
2022-10-04T05:18:48.195Z,95333.50
2022-10-04T05:21:54.293Z,95337.78
2022-10-04T05:25:00.699Z,95341.00
2022-10-04T05:28:07.109Z,95345.78
2022-10-04T05:31:37.187Z,95343.66
2022-10-04T05:34:45.433Z,95347.41
2022-10-04T05:38:03.537Z,95359.63
2022-10-04T05:41:10.472Z,95359.34
2022-10-04T05:44:21.785Z,95363.88
2022-10-04T05:47:28.789Z,95360.13
2022-10-04T05:50:36.280Z,95373.44
2022-10-04T05:53:39.794Z,95375.03
2022-10-04T05:57:16.419Z,95378.97
2022-10-04T06:00:21.864Z,95368.84
2022-10-04T06:03:46.250Z,95378.09
2022-10-04T06:06:57.140Z,95391.91
2022-10-04T06:10:26.814Z,95397.53
2022-10-04T06:13:59.496Z,95399.59
2022-10-04T06:17:31.097Z,95414.19
2022-10-04T06:21:02.540Z,95412.31
2022-10-04T06:24:13.055Z,95410.28
2022-10-04T06:27:21.789Z,95412.84
2022-10-04T06:30:25.944Z,95420.78
2022-10-04T06:33:45.142Z,95421.88
2022-10-04T06:37:05.785Z,95422.75
2022-10-04T06:40:38.703Z,95424.03
2022-10-04T06:44:06.176Z,95419.75
2022-10-04T06:47:25.200Z,95424.88
2022-10-04T06:50:36.745Z,95424.09
2022-10-04T06:53:51.989Z,95427.75
2022-10-04T06:57:22.917Z,95427.38
2022-10-04T07:00:27.354Z,95432.22
2022-10-04T07:03:39.417Z,95429.00
2022-10-04T07:06:49.349Z,95431.97
2022-10-04T07:09:56.037Z,95435.97
2022-10-04T07:13:16.412Z,95438.16
2022-10-04T07:16:40.646Z,95440.50
2022-10-04T07:19:47.936Z,95439.22
2022-10-04T07:22:59.641Z,95447.03
2022-10-04T07:26:07.998Z,95450.28
2022-10-04T07:29:23.233Z,95455.09
2022-10-04T07:32:30.029Z,95453.53
2022-10-04T07:35:45.121Z,95456.97
2022-10-04T07:38:54.426Z,95466.06
2022-10-04T07:42:02.450Z,95458.06
2022-10-04T07:45:17.628Z,95457.53
2022-10-04T07:48:24.965Z,95457.03
2022-10-04T07:51:35.351Z,95467.69
2022-10-04T07:54:44.877Z,95461.56
2022-10-04T07:57:58.730Z,95476.84
2022-10-04T08:01:08.105Z,95475.75
2022-10-04T08:04:30.145Z,95468.88
2022-10-04T08:07:46.442Z,95471.81
2022-10-04T08:11:01.704Z,95473.19
2022-10-04T08:14:19.667Z,95467.38
2022-10-04T08:17:38.182Z,95466.59
2022-10-04T08:20:49.951Z,95471.13
2022-10-04T08:24:16.062Z,95468.47
2022-10-04T08:27:31.696Z,95457.03
2022-10-04T08:30:49.211Z,95460.09
2022-10-04T08:34:11.002Z,95458.91
2022-10-04T08:37:29.505Z,95456.75
2022-10-04T08:41:14.930Z,95458.25
2022-10-04T08:44:51.298Z,95446.06
2022-10-04T08:48:26.624Z,95452.38
2022-10-04T08:52:14.017Z,95448.03
2022-10-04T08:55:53.819Z,95449.56
2022-10-04T08:59:23.696Z,95451.84
2022-10-04T09:02:48.694Z,95446.22
2022-10-04T09:06:01.603Z,95451.16
2022-10-04T09:09:49.335Z,95448.72
2022-10-04T09:13:17.704Z,95442.78
2022-10-04T09:16:28.792Z,95441.72
2022-10-04T09:19:48.758Z,95439.72
2022-10-04T09:23:04.058Z,95451.66
2022-10-04T09:26:22.001Z,95453.25
2022-10-04T09:29:53.194Z,95463.22
2022-10-04T09:33:30.535Z,95474.19
2022-10-04T09:36:51.037Z,95473.69
2022-10-04T09:40:30.603Z,95463.53
2022-10-04T09:44:13.763Z,95467.47
2022-10-04T09:47:32.090Z,95462.13
2022-10-04T09:51:08.309Z,95457.72
2022-10-04T09:54:45.821Z,95457.00
2022-10-04T09:58:16.026Z,95462.81
2022-10-04T10:01:29.556Z,95464.72
2022-10-04T10:04:50.056Z,95461.25
2022-10-04T10:08:01.508Z,95461.16
2022-10-04T10:11:31.966Z,95460.75
2022-10-04T10:14:57.253Z,95466.09
2022-10-04T10:18:10.195Z,95462.31
2022-10-04T10:21:30.301Z,95463.72
2022-10-04T10:25:12.046Z,95464.31
2022-10-04T10:28:36.438Z,95457.88
2022-10-04T10:31:56.728Z,95471.22
2022-10-04T10:35:29.308Z,95466.47
2022-10-04T10:38:58.705Z,95465.19
2022-10-04T10:42:27.729Z,95475.38
2022-10-04T10:46:00.478Z,95475.94
2022-10-04T10:49:23.878Z,95478.69
2022-10-04T10:53:05.929Z,95490.44
2022-10-04T10:56:47.982Z,95468.63
2022-10-04T11:00:20.139Z,95473.97
2022-10-04T11:03:48.592Z,95468.94
2022-10-04T11:07:38.045Z,95470.81
2022-10-04T11:11:04.428Z,95468.44
2022-10-04T11:14:37.211Z,95467.84
2022-10-04T11:18:07.297Z,95471.00
2022-10-04T11:21:35.922Z,95464.09
2022-10-04T11:25:04.679Z,95473.16
2022-10-04T11:28:14.352Z,95468.63
2022-10-04T11:31:55.886Z,95473.75
2022-10-04T11:35:35.210Z,95476.13
2022-10-04T11:38:53.367Z,95478.50
2022-10-04T11:42:02.426Z,95475.03
2022-10-04T11:45:33.973Z,95472.97
2022-10-04T11:48:48.788Z,95473.97
2022-10-04T11:52:19.739Z,95476.13
2022-10-04T11:55:54.231Z,95468.13
2022-10-04T11:59:12.362Z,95473.75
2022-10-04T12:02:42.381Z,95474.31
2022-10-04T12:06:04.346Z,95479.66
2022-10-04T12:09:21.326Z,95477.78
2022-10-04T12:12:54.501Z,95476.97
2022-10-04T12:16:30.535Z,95476.97
2022-10-04T12:20:01.006Z,95471.94
2022-10-04T12:23:32.215Z,95469.56
2022-10-04T12:27:05.739Z,95466.41
2022-10-04T12:30:52.046Z,95464.81
2022-10-04T12:34:06.390Z,95480.00
2022-10-04T12:37:22.033Z,95482.19
2022-10-04T12:40:33.296Z,95479.03
2022-10-04T12:43:47.476Z,95472.41
2022-10-04T12:47:04.483Z,95478.22
2022-10-04T12:50:18.890Z,95474.00
2022-10-04T12:53:34.453Z,95472.91
2022-10-04T12:56:48.591Z,95478.22
2022-10-04T13:00:03.595Z,95484.34
2022-10-04T13:03:38.300Z,95476.66
2022-10-04T13:06:55.187Z,95474.78
2022-10-04T13:10:24.214Z,95471.13
2022-10-04T13:13:47.883Z,95478.28
2022-10-04T13:20:41.453Z,95474.56
2022-10-04T13:23:59.594Z,95464.19
2022-10-04T13:27:06.114Z,95467.63
2022-10-04T13:30:20.449Z,95474.34
2022-10-04T13:33:35.014Z,95473.84
2022-10-04T13:36:52.164Z,95484.50
2022-10-04T13:40:34.194Z,95481.34
2022-10-04T13:44:05.342Z,95481.63
2022-10-04T13:47:29.526Z,95485.88
2022-10-04T13:50:45.987Z,95485.09
2022-10-04T13:54:16.856Z,95492.59
2022-10-04T13:57:25.645Z,95487.56
2022-10-04T14:00:52.604Z,95491.59
2022-10-04T14:04:11.767Z,95500.97
2022-10-04T14:07:46.707Z,95501.22
2022-10-04T14:11:21.366Z,95504.47
2022-10-04T14:15:09.307Z,95503.97
2022-10-04T14:18:54.535Z,95507.72
2022-10-04T14:22:44.798Z,95515.19
2022-10-04T14:26:07.510Z,95522.69
2022-10-04T14:29:46.356Z,95519.53
2022-10-04T14:33:16.560Z,95532.84
2022-10-04T14:37:06.628Z,95530.97
2022-10-04T14:40:46.584Z,95531.25
2022-10-04T14:44:15.220Z,95544.78
2022-10-04T14:47:42.808Z,95540.34
2022-10-04T14:51:11.741Z,95547.72
2022-10-04T14:54:29.547Z,95546.38
2022-10-04T14:57:54.133Z,95544.78
2022-10-04T15:01:15.687Z,95561.47
2022-10-04T15:04:30.474Z,95561.66
2022-10-04T15:07:37.231Z,95565.13
2022-10-04T15:10:50.249Z,95567.00
2022-10-04T15:13:56.168Z,95575.53
2022-10-04T15:17:02.535Z,95587.75
2022-10-04T15:20:20.226Z,95591.69
2022-10-04T15:23:34.991Z,95596.44
2022-10-04T15:27:09.391Z,95599.13
2022-10-04T15:30:22.454Z,95607.09
2022-10-04T15:33:34.528Z,95600.47
2022-10-04T15:37:00.279Z,95608.25
2022-10-04T15:40:29.826Z,95604.28
2022-10-04T15:43:43.350Z,95609.31
2022-10-04T15:46:52.230Z,95610.13
2022-10-04T15:50:27.429Z,95618.63
2022-10-04T15:53:50.266Z,95621.56
2022-10-04T15:56:57.605Z,95621.56
2022-10-04T16:00:08.890Z,95629.56
2022-10-04T16:03:21.071Z,95629.03
2022-10-04T16:06:29.784Z,95632.47
2022-10-04T16:09:46.508Z,95643.38
2022-10-04T16:13:36.550Z,95650.28
2022-10-04T16:17:00.052Z,95649.78
2022-10-04T16:20:47.198Z,95654.03
2022-10-04T16:24:40.197Z,95655.13
2022-10-04T16:28:08.247Z,95660.44
2022-10-04T16:31:55.570Z,95669.22
2022-10-04T16:35:01.439Z,95677.22
2022-10-04T16:38:17.413Z,95675.03
2022-10-04T16:41:35.528Z,95677.34
2022-10-04T16:44:50.469Z,95678.31
2022-10-04T16:47:58.684Z,95689.28
2022-10-04T16:51:24.006Z,95696.88
2022-10-04T16:55:01.141Z,95693.34
2022-10-04T16:58:46.336Z,95697.56
2022-10-04T17:02:14.867Z,95702.09
2022-10-04T17:05:48.524Z,95716.03
2022-10-04T17:09:09.310Z,95715.81
2022-10-04T17:12:19.883Z,95717.69
2022-10-04T17:15:49.763Z,95727.84
2022-10-04T17:19:14.219Z,95723.81
2022-10-04T17:22:28.876Z,95723.88
2022-10-04T17:25:45.602Z,95730.50
2022-10-04T17:28:56.624Z,95739.00
2022-10-04T17:32:04.632Z,95740.06
2022-10-04T17:35:38.839Z,95744.31
2022-10-04T17:38:51.342Z,95744.81
2022-10-04T17:42:07.187Z,95750.16
2022-10-04T17:45:30.089Z,95752.03
2022-10-04T17:48:56.772Z,95750.16
2022-10-04T17:52:22.763Z,95753.59
2022-10-04T17:55:29.082Z,95769.31
2022-10-04T17:58:41.969Z,95761.88
2022-10-04T18:01:49.651Z,95767.44
2022-10-04T18:04:56.850Z,95771.97
2022-10-04T18:08:04.081Z,95776.22
2022-10-04T18:11:16.841Z,95784.50
2022-10-04T18:14:52.344Z,95784.50
2022-10-04T18:18:16.072Z,95789.03
2022-10-04T18:21:27.462Z,95789.81
2022-10-04T18:24:31.948Z,95793.78
2022-10-04T18:27:50.387Z,95794.56
2022-10-04T18:30:59.054Z,95797.53
2022-10-04T18:34:16.786Z,95793.00
2022-10-04T18:37:22.323Z,95791.91
2022-10-04T18:40:28.625Z,95793.78
2022-10-04T18:43:33.964Z,95792.72
2022-10-04T18:46:40.501Z,95793.50
2022-10-04T18:49:49.292Z,95809.22
2022-10-04T18:53:14.876Z,95804.97
2022-10-04T18:56:22.515Z,95802.31
2022-10-04T18:59:56.703Z,95808.44
2022-10-04T19:03:08.052Z,95805.53
2022-10-04T19:06:17.217Z,95806.03
2022-10-04T19:09:28.918Z,95810.84
2022-10-04T19:12:42.201Z,95806.59
2022-10-04T19:15:57.352Z,95803.94
2022-10-04T19:19:21.325Z,95812.44
2022-10-04T19:22:39.116Z,95817.75
2022-10-04T19:26:10.022Z,95825.75
2022-10-04T19:29:23.338Z,95815.56
2022-10-04T19:32:35.877Z,95820.72
2022-10-04T19:35:56.170Z,95825.88
2022-10-04T19:39:12.480Z,95828.81
2022-10-04T19:42:19.458Z,95836.28
2022-10-04T19:45:34.185Z,95833.13
2022-10-04T19:48:42.995Z,95832.09
2022-10-04T19:51:51.508Z,95835.28
2022-10-04T19:55:02.955Z,95835.03
2022-10-04T19:58:19.531Z,95831.59
2022-10-04T20:01:24.908Z,95826.25
2022-10-04T20:04:38.652Z,95830.22
2022-10-04T20:07:41.918Z,95834.25
2022-10-04T20:10:45.649Z,95839.03
2022-10-04T20:14:10.262Z,95842.78
2022-10-04T20:17:31.577Z,95855.00
2022-10-04T20:21:05.426Z,95855.00
2022-10-04T20:24:17.516Z,95860.91
2022-10-04T20:27:53.746Z,95863.28
2022-10-04T20:30:58.393Z,95872.63
2022-10-04T20:34:33.127Z,95868.88
2022-10-04T20:38:31.219Z,95866.78
2022-10-04T20:42:22.071Z,95869.72
2022-10-04T20:45:27.927Z,95874.25
2022-10-04T20:48:33.093Z,95878.50
2022-10-04T20:51:37.961Z,95878.50
2022-10-04T20:54:40.948Z,95874.53
2022-10-04T20:57:43.967Z,95875.06
2022-10-04T21:00:53.637Z,95873.75
2022-10-04T21:04:13.824Z,95879.63
2022-10-04T21:07:21.059Z,95884.97
2022-10-04T21:10:24.033Z,95890.00
2022-10-04T21:13:44.588Z,95885.50
2022-10-04T21:16:49.822Z,95892.94
2022-10-04T21:19:53.522Z,95900.38
2022-10-04T21:23:10.096Z,95890.81
2022-10-04T21:26:20.878Z,95891.91
2022-10-04T21:29:24.541Z,95897.72
2022-10-04T21:32:28.899Z,95896.44
2022-10-04T21:35:31.931Z,95902.03
2022-10-04T21:38:36.451Z,95902.53
2022-10-04T21:41:39.488Z,95899.38
2022-10-04T21:44:42.503Z,95895.13
2022-10-04T21:47:45.469Z,95896.97
2022-10-04T21:50:48.791Z,95899.66
2022-10-04T21:53:53.201Z,95890.88
2022-10-04T21:56:56.153Z,95894.31
2022-10-04T21:59:59.147Z,95892.72
2022-10-04T22:03:02.118Z,95898.84
2022-10-04T22:06:05.297Z,95901.50
2022-10-04T22:09:10.003Z,95904.16
2022-10-04T22:12:12.981Z,95908.97
2022-10-04T22:15:16.035Z,95904.72
2022-10-04T22:18:19.016Z,95902.06
2022-10-04T22:21:22.039Z,95904.72
2022-10-04T22:24:26.432Z,95914.59
2022-10-04T22:27:30.891Z,95914.88
2022-10-04T22:30:34.445Z,95910.63
2022-10-04T22:33:38.911Z,95918.84
2022-10-04T22:36:41.997Z,95919.66
2022-10-04T22:39:46.331Z,95917.00
2022-10-04T22:42:52.853Z,95923.38
2022-10-04T22:45:56.499Z,95924.16
2022-10-04T22:48:59.519Z,95926.31
2022-10-04T22:52:10.892Z,95928.44
2022-10-04T22:55:19.091Z,95933.75
2022-10-04T22:58:22.420Z,95945.75
2022-10-04T23:01:27.426Z,95940.66
2022-10-04T23:04:30.449Z,95949.47
2022-10-04T23:07:38.072Z,95939.88
2022-10-04T23:10:42.835Z,95933.53
2022-10-04T23:13:45.903Z,95934.84
2022-10-04T23:16:49.231Z,95941.50
2022-10-04T23:19:55.372Z,95930.59
2022-10-04T23:23:01.017Z,95940.44
2022-10-04T23:32:21.245Z,95937.25
2022-10-04T23:35:26.049Z,95940.47
2022-10-04T23:38:30.487Z,95943.66
2022-10-04T23:41:34.889Z,95952.44
2022-10-04T23:44:39.365Z,95946.31
2022-10-04T23:47:42.415Z,95950.84
2022-10-04T23:50:45.392Z,95948.44
2022-10-04T23:53:50.222Z,95953.78
2022-10-04T23:56:54.735Z,95947.38
